sensor_id;sensor_type;location;lat;lon;timestamp;P1;durP1;ratioP1;P2;durP2;ratioP2
71187;SDS011;58893;53.130;8.158;2023-02-28T00:00:39;7.50;;;4.80;;
71187;SDS011;58893;53.130;8.158;2023-02-28T00:03:05;11.87;;;4.40;;
71187;SDS011;58893;53.130;8.158;2023-02-28T00:05:31;11.33;;;5.77;;
71187;SDS011;58893;53.130;8.158;2023-02-28T00:07:56;11.87;;;5.50;;
71187;SDS011;58893;53.130;8.158;2023-02-28T00:10:26;6.53;;;4.23;;
71187;SDS011;58893;53.130;8.158;2023-02-28T00:12:55;13.20;;;6.23;;
71187;SDS011;58893;53.130;8.158;2023-02-28T00:15:23;12.33;;;4.73;;
71187;SDS011;58893;53.130;8.158;2023-02-28T00:17:49;11.07;;;4.93;;
71187;SDS011;58893;53.130;8.158;2023-02-28T00:20:15;10.07;;;4.93;;
71187;SDS011;58893;53.130;8.158;2023-02-28T00:22:43;10.63;;;5.43;;
71187;SDS011;58893;53.130;8.158;2023-02-28T00:25:11;10.07;;;6.10;;
71187;SDS011;58893;53.130;8.158;2023-02-28T00:27:38;9.87;;;5.03;;
71187;SDS011;58893;53.130;8.158;2023-02-28T00:30:05;7.67;;;5.07;;
71187;SDS011;58893;53.130;8.158;2023-02-28T00:32:32;9.93;;;5.30;;
71187;SDS011;58893;53.130;8.158;2023-02-28T00:34:59;9.80;;;4.60;;
71187;SDS011;58893;53.130;8.158;2023-02-28T00:37:25;13.83;;;5.50;;
71187;SDS011;58893;53.130;8.158;2023-02-28T00:39:51;12.57;;;5.37;;
71187;SDS011;58893;53.130;8.158;2023-02-28T00:42:16;10.63;;;5.73;;
71187;SDS011;58893;53.130;8.158;2023-02-28T00:44:42;9.77;;;5.47;;
71187;SDS011;58893;53.130;8.158;2023-02-28T00:47:08;18.70;;;5.30;;
71187;SDS011;58893;53.130;8.158;2023-02-28T00:49:33;9.93;;;5.03;;
71187;SDS011;58893;53.130;8.158;2023-02-28T00:51:59;10.23;;;5.50;;
71187;SDS011;58893;53.130;8.158;2023-02-28T00:54:25;7.43;;;5.17;;
71187;SDS011;58893;53.130;8.158;2023-02-28T00:56:50;9.43;;;4.77;;
71187;SDS011;58893;53.130;8.158;2023-02-28T00:59:16;15.13;;;5.73;;
71187;SDS011;58893;53.130;8.158;2023-02-28T01:01:43;15.93;;;5.67;;
71187;SDS011;58893;53.130;8.158;2023-02-28T01:04:10;11.77;;;5.40;;
71187;SDS011;58893;53.130;8.158;2023-02-28T01:06:36;14.13;;;5.57;;
71187;SDS011;58893;53.130;8.158;2023-02-28T01:09:02;9.50;;;4.93;;
71187;SDS011;58893;53.130;8.158;2023-02-28T01:11:29;9.90;;;4.93;;
71187;SDS011;58893;53.130;8.158;2023-02-28T01:13:55;11.20;;;5.87;;
71187;SDS011;58893;53.130;8.158;2023-02-28T01:16:21;9.40;;;6.13;;
71187;SDS011;58893;53.130;8.158;2023-02-28T01:18:46;8.67;;;5.30;;
71187;SDS011;58893;53.130;8.158;2023-02-28T01:21:14;12.80;;;5.43;;
71187;SDS011;58893;53.130;8.158;2023-02-28T01:23:41;11.23;;;4.77;;
71187;SDS011;58893;53.130;8.158;2023-02-28T01:26:08;9.50;;;4.93;;
71187;SDS011;58893;53.130;8.158;2023-02-28T01:28:39;11.70;;;5.40;;
71187;SDS011;58893;53.130;8.158;2023-02-28T01:31:06;12.43;;;5.83;;
71187;SDS011;58893;53.130;8.158;2023-02-28T01:33:32;12.20;;;5.33;;
71187;SDS011;58893;53.130;8.158;2023-02-28T01:35:58;10.63;;;5.27;;
71187;SDS011;58893;53.130;8.158;2023-02-28T01:38:24;9.20;;;5.33;;
71187;SDS011;58893;53.130;8.158;2023-02-28T01:40:50;8.60;;;5.00;;
71187;SDS011;58893;53.130;8.158;2023-02-28T01:43:21;9.00;;;5.53;;
71187;SDS011;58893;53.130;8.158;2023-02-28T01:45:53;9.17;;;5.33;;
71187;SDS011;58893;53.130;8.158;2023-02-28T01:48:21;14.53;;;5.27;;
71187;SDS011;58893;53.130;8.158;2023-02-28T01:50:51;8.47;;;4.73;;
71187;SDS011;58893;53.130;8.158;2023-02-28T01:53:19;13.43;;;6.03;;
71187;SDS011;58893;53.130;8.158;2023-02-28T01:55:51;10.93;;;5.63;;
71187;SDS011;58893;53.130;8.158;2023-02-28T01:58:19;11.60;;;5.87;;
71187;SDS011;58893;53.130;8.158;2023-02-28T02:00:44;9.33;;;5.37;;
71187;SDS011;58893;53.130;8.158;2023-02-28T02:03:13;11.03;;;4.90;;
71187;SDS011;58893;53.130;8.158;2023-02-28T02:05:44;11.77;;;5.23;;
71187;SDS011;58893;53.130;8.158;2023-02-28T02:08:13;12.53;;;5.27;;
71187;SDS011;58893;53.130;8.158;2023-02-28T02:11:00;9.40;;;4.70;;
71187;SDS011;58893;53.130;8.158;2023-02-28T02:37:29;15.33;;;5.00;;
71187;SDS011;58893;53.130;8.158;2023-02-28T02:40:16;7.93;;;4.37;;
71187;SDS011;58893;53.130;8.158;2023-02-28T02:42:50;12.77;;;5.53;;
71187;SDS011;58893;53.130;8.158;2023-02-28T02:47:47;11.53;;;5.47;;
71187;SDS011;58893;53.130;8.158;2023-02-28T02:50:17;7.40;;;4.77;;
71187;SDS011;58893;53.130;8.158;2023-02-28T02:52:55;9.40;;;4.40;;
71187;SDS011;58893;53.130;8.158;2023-02-28T02:55:24;16.53;;;5.50;;
71187;SDS011;58893;53.130;8.158;2023-02-28T02:57:54;13.37;;;5.30;;
71187;SDS011;58893;53.130;8.158;2023-02-28T03:00:32;12.97;;;5.07;;
71187;SDS011;58893;53.130;8.158;2023-02-28T03:03:06;7.73;;;4.87;;
71187;SDS011;58893;53.130;8.158;2023-02-28T03:05:36;9.33;;;4.57;;
71187;SDS011;58893;53.130;8.158;2023-02-28T03:08:09;7.10;;;3.93;;
71187;SDS011;58893;53.130;8.158;2023-02-28T03:10:44;7.33;;;3.80;;
71187;SDS011;58893;53.130;8.158;2023-02-28T03:18:40;9.63;;;4.60;;
71187;SDS011;58893;53.130;8.158;2023-02-28T03:26:55;8.17;;;4.17;;
71187;SDS011;58893;53.130;8.158;2023-02-28T03:29:28;7.00;;;4.60;;
71187;SDS011;58893;53.130;8.158;2023-02-28T03:32:10;9.27;;;5.20;;
71187;SDS011;58893;53.130;8.158;2023-02-28T03:35:17;18.10;;;5.47;;
71187;SDS011;58893;53.130;8.158;2023-02-28T03:37:48;8.33;;;4.33;;
71187;SDS011;58893;53.130;8.158;2023-02-28T03:40:19;7.70;;;4.33;;
71187;SDS011;58893;53.130;8.158;2023-02-28T03:42:47;12.17;;;6.03;;
71187;SDS011;58893;53.130;8.158;2023-02-28T03:45:18;9.63;;;5.53;;
71187;SDS011;58893;53.130;8.158;2023-02-28T03:47:55;11.90;;;5.33;;
71187;SDS011;58893;53.130;8.158;2023-02-28T03:50:40;9.47;;;5.00;;
71187;SDS011;58893;53.130;8.158;2023-02-28T03:53:11;9.97;;;5.13;;
71187;SDS011;58893;53.130;8.158;2023-02-28T03:55:41;7.00;;;5.30;;
71187;SDS011;58893;53.130;8.158;2023-02-28T03:58:30;10.50;;;6.00;;
71187;SDS011;58893;53.130;8.158;2023-02-28T04:03:56;10.47;;;5.23;;
71187;SDS011;58893;53.130;8.158;2023-02-28T04:06:22;11.77;;;5.70;;
71187;SDS011;58893;53.130;8.158;2023-02-28T04:08:49;19.80;;;7.17;;
71187;SDS011;58893;53.130;8.158;2023-02-28T04:11:31;15.20;;;6.53;;
71187;SDS011;58893;53.130;8.158;2023-02-28T04:14:00;9.80;;;5.50;;
71187;SDS011;58893;53.130;8.158;2023-02-28T04:16:26;7.67;;;5.50;;
71187;SDS011;58893;53.130;8.158;2023-02-28T04:18:51;11.53;;;6.33;;
71187;SDS011;58893;53.130;8.158;2023-02-28T04:21:17;14.10;;;5.40;;
71187;SDS011;58893;53.130;8.158;2023-02-28T04:23:46;13.13;;;6.63;;
71187;SDS011;58893;53.130;8.158;2023-02-28T04:26:11;13.87;;;7.50;;
71187;SDS011;58893;53.130;8.158;2023-02-28T04:28:37;10.50;;;6.00;;
71187;SDS011;58893;53.130;8.158;2023-02-28T04:31:04;10.50;;;5.47;;
71187;SDS011;58893;53.130;8.158;2023-02-28T04:33:31;11.83;;;6.90;;
71187;SDS011;58893;53.130;8.158;2023-02-28T04:36:01;13.70;;;7.00;;
71187;SDS011;58893;53.130;8.158;2023-02-28T04:38:29;13.40;;;6.13;;
71187;SDS011;58893;53.130;8.158;2023-02-28T04:40:58;11.40;;;6.87;;
71187;SDS011;58893;53.130;8.158;2023-02-28T04:43:25;16.90;;;7.10;;
71187;SDS011;58893;53.130;8.158;2023-02-28T04:45:52;12.30;;;5.93;;
71187;SDS011;58893;53.130;8.158;2023-02-28T04:48:17;9.73;;;6.10;;
71187;SDS011;58893;53.130;8.158;2023-02-28T04:50:43;13.73;;;6.87;;
71187;SDS011;58893;53.130;8.158;2023-02-28T04:53:08;10.23;;;6.47;;
71187;SDS011;58893;53.130;8.158;2023-02-28T04:55:34;11.90;;;6.10;;
71187;SDS011;58893;53.130;8.158;2023-02-28T04:58:00;13.97;;;6.00;;
71187;SDS011;58893;53.130;8.158;2023-02-28T05:00:25;12.30;;;5.83;;
71187;SDS011;58893;53.130;8.158;2023-02-28T05:02:51;10.63;;;5.37;;
71187;SDS011;58893;53.130;8.158;2023-02-28T05:05:16;8.67;;;5.03;;
71187;SDS011;58893;53.130;8.158;2023-02-28T05:07:43;8.83;;;5.20;;
71187;SDS011;58893;53.130;8.158;2023-02-28T05:10:09;18.63;;;6.50;;
71187;SDS011;58893;53.130;8.158;2023-02-28T05:12:36;15.63;;;5.90;;
71187;SDS011;58893;53.130;8.158;2023-02-28T05:15:02;13.80;;;6.60;;
71187;SDS011;58893;53.130;8.158;2023-02-28T05:17:29;9.23;;;5.50;;
71187;SDS011;58893;53.130;8.158;2023-02-28T05:19:55;13.33;;;5.53;;
71187;SDS011;58893;53.130;8.158;2023-02-28T05:22:21;8.67;;;5.67;;
71187;SDS011;58893;53.130;8.158;2023-02-28T05:24:46;9.30;;;6.20;;
71187;SDS011;58893;53.130;8.158;2023-02-28T05:27:12;13.60;;;6.00;;
71187;SDS011;58893;53.130;8.158;2023-02-28T05:29:38;11.50;;;6.20;;
71187;SDS011;58893;53.130;8.158;2023-02-28T05:32:08;10.70;;;4.87;;
71187;SDS011;58893;53.130;8.158;2023-02-28T05:34:35;17.60;;;6.10;;
71187;SDS011;58893;53.130;8.158;2023-02-28T05:37:05;11.10;;;5.47;;
71187;SDS011;58893;53.130;8.158;2023-02-28T05:39:31;7.90;;;4.90;;
71187;SDS011;58893;53.130;8.158;2023-02-28T05:41:58;13.97;;;5.70;;
71187;SDS011;58893;53.130;8.158;2023-02-28T05:44:23;18.00;;;5.90;;
71187;SDS011;58893;53.130;8.158;2023-02-28T05:46:49;16.30;;;5.60;;
71187;SDS011;58893;53.130;8.158;2023-02-28T05:49:15;11.97;;;5.63;;
71187;SDS011;58893;53.130;8.158;2023-02-28T05:51:40;14.37;;;5.47;;
71187;SDS011;58893;53.130;8.158;2023-02-28T05:54:06;9.43;;;6.23;;
71187;SDS011;58893;53.130;8.158;2023-02-28T05:56:32;14.13;;;6.10;;
71187;SDS011;58893;53.130;8.158;2023-02-28T05:58:59;20.97;;;5.47;;
71187;SDS011;58893;53.130;8.158;2023-02-28T06:04:01;10.50;;;5.57;;
71187;SDS011;58893;53.130;8.158;2023-02-28T06:06:28;11.03;;;6.80;;
71187;SDS011;58893;53.130;8.158;2023-02-28T06:08:59;7.17;;;4.93;;
71187;SDS011;58893;53.130;8.158;2023-02-28T06:11:25;12.67;;;5.80;;
71187;SDS011;58893;53.130;8.158;2023-02-28T06:13:55;25.20;;;6.47;;
71187;SDS011;58893;53.130;8.158;2023-02-28T06:16:22;8.90;;;4.90;;
71187;SDS011;58893;53.130;8.158;2023-02-28T06:18:48;16.30;;;5.60;;
71187;SDS011;58893;53.130;8.158;2023-02-28T06:21:14;9.27;;;5.67;;
71187;SDS011;58893;53.130;8.158;2023-02-28T06:23:40;10.33;;;5.73;;
71187;SDS011;58893;53.130;8.158;2023-02-28T06:26:06;10.37;;;6.03;;
71187;SDS011;58893;53.130;8.158;2023-02-28T06:28:32;11.67;;;5.90;;
71187;SDS011;58893;53.130;8.158;2023-02-28T06:30:57;14.47;;;5.70;;
71187;SDS011;58893;53.130;8.158;2023-02-28T06:33:23;8.97;;;5.00;;
71187;SDS011;58893;53.130;8.158;2023-02-28T06:35:50;7.60;;;4.53;;
71187;SDS011;58893;53.130;8.158;2023-02-28T06:38:16;10.50;;;5.67;;
71187;SDS011;58893;53.130;8.158;2023-02-28T06:40:43;14.50;;;6.90;;
71187;SDS011;58893;53.130;8.158;2023-02-28T06:43:09;15.20;;;6.30;;
71187;SDS011;58893;53.130;8.158;2023-02-28T06:45:41;12.93;;;6.03;;
71187;SDS011;58893;53.130;8.158;2023-02-28T06:48:08;17.60;;;6.37;;
71187;SDS011;58893;53.130;8.158;2023-02-28T06:50:35;20.07;;;5.93;;
71187;SDS011;58893;53.130;8.158;2023-02-28T06:53:01;9.30;;;4.70;;
71187;SDS011;58893;53.130;8.158;2023-02-28T06:55:26;12.53;;;4.90;;
71187;SDS011;58893;53.130;8.158;2023-02-28T06:57:52;10.17;;;4.70;;
71187;SDS011;58893;53.130;8.158;2023-02-28T07:00:19;10.63;;;4.90;;
71187;SDS011;58893;53.130;8.158;2023-02-28T07:02:46;12.63;;;4.60;;
71187;SDS011;58893;53.130;8.158;2023-02-28T07:05:12;7.33;;;4.47;;
71187;SDS011;58893;53.130;8.158;2023-02-28T07:07:38;11.50;;;5.50;;
71187;SDS011;58893;53.130;8.158;2023-02-28T07:10:08;13.70;;;5.33;;
71187;SDS011;58893;53.130;8.158;2023-02-28T07:12:38;9.87;;;4.80;;
71187;SDS011;58893;53.130;8.158;2023-02-28T07:15:04;8.87;;;4.10;;
71187;SDS011;58893;53.130;8.158;2023-02-28T07:17:30;8.23;;;4.60;;
71187;SDS011;58893;53.130;8.158;2023-02-28T07:19:56;9.67;;;4.70;;
71187;SDS011;58893;53.130;8.158;2023-02-28T07:22:22;7.83;;;4.57;;
71187;SDS011;58893;53.130;8.158;2023-02-28T07:24:47;8.73;;;4.40;;
71187;SDS011;58893;53.130;8.158;2023-02-28T07:27:13;13.43;;;4.13;;
71187;SDS011;58893;53.130;8.158;2023-02-28T07:29:48;6.00;;;3.97;;
71187;SDS011;58893;53.130;8.158;2023-02-28T07:32:14;11.07;;;5.23;;
71187;SDS011;58893;53.130;8.158;2023-02-28T07:34:40;10.40;;;4.63;;
71187;SDS011;58893;53.130;8.158;2023-02-28T07:37:05;9.90;;;5.00;;
71187;SDS011;58893;53.130;8.158;2023-02-28T07:39:31;7.23;;;3.93;;
71187;SDS011;58893;53.130;8.158;2023-02-28T07:41:57;9.40;;;4.23;;
71187;SDS011;58893;53.130;8.158;2023-02-28T07:44:24;12.23;;;5.00;;
71187;SDS011;58893;53.130;8.158;2023-02-28T07:46:50;10.87;;;4.23;;
71187;SDS011;58893;53.130;8.158;2023-02-28T07:49:16;10.40;;;4.90;;
71187;SDS011;58893;53.130;8.158;2023-02-28T07:51:41;8.17;;;4.33;;
71187;SDS011;58893;53.130;8.158;2023-02-28T07:54:07;8.10;;;4.30;;
71187;SDS011;58893;53.130;8.158;2023-02-28T07:56:33;11.40;;;4.00;;
71187;SDS011;58893;53.130;8.158;2023-02-28T07:58:58;7.50;;;4.17;;
71187;SDS011;58893;53.130;8.158;2023-02-28T08:01:24;6.80;;;4.20;;
71187;SDS011;58893;53.130;8.158;2023-02-28T08:03:49;5.70;;;4.10;;
71187;SDS011;58893;53.130;8.158;2023-02-28T08:06:18;6.33;;;3.20;;
71187;SDS011;58893;53.130;8.158;2023-02-28T08:08:46;4.73;;;3.57;;
71187;SDS011;58893;53.130;8.158;2023-02-28T08:11:12;9.80;;;4.13;;
71187;SDS011;58893;53.130;8.158;2023-02-28T08:13:38;9.50;;;4.93;;
71187;SDS011;58893;53.130;8.158;2023-02-28T08:16:04;7.63;;;3.40;;
71187;SDS011;58893;53.130;8.158;2023-02-28T08:18:29;5.60;;;3.30;;
71187;SDS011;58893;53.130;8.158;2023-02-28T08:20:55;5.67;;;3.60;;
71187;SDS011;58893;53.130;8.158;2023-02-28T08:23:22;7.10;;;3.90;;
71187;SDS011;58893;53.130;8.158;2023-02-28T08:25:54;5.83;;;3.60;;
71187;SDS011;58893;53.130;8.158;2023-02-28T08:28:21;8.73;;;3.60;;
71187;SDS011;58893;53.130;8.158;2023-02-28T08:30:47;7.53;;;4.10;;
71187;SDS011;58893;53.130;8.158;2023-02-28T08:33:14;9.00;;;3.63;;
71187;SDS011;58893;53.130;8.158;2023-02-28T08:35:39;5.50;;;3.20;;
71187;SDS011;58893;53.130;8.158;2023-02-28T08:38:05;6.63;;;3.73;;
71187;SDS011;58893;53.130;8.158;2023-02-28T08:40:31;5.10;;;3.23;;
71187;SDS011;58893;53.130;8.158;2023-02-28T08:42:56;7.93;;;3.70;;
71187;SDS011;58893;53.130;8.158;2023-02-28T08:45:23;8.77;;;3.20;;
71187;SDS011;58893;53.130;8.158;2023-02-28T08:47:48;4.80;;;2.57;;
71187;SDS011;58893;53.130;8.158;2023-02-28T08:50:14;5.60;;;3.33;;
71187;SDS011;58893;53.130;8.158;2023-02-28T08:52:42;4.47;;;2.60;;
71187;SDS011;58893;53.130;8.158;2023-02-28T08:55:08;4.50;;;3.10;;
71187;SDS011;58893;53.130;8.158;2023-02-28T08:57:35;7.00;;;3.10;;
71187;SDS011;58893;53.130;8.158;2023-02-28T09:00:00;4.10;;;2.57;;
71187;SDS011;58893;53.130;8.158;2023-02-28T09:02:29;4.27;;;2.20;;
71187;SDS011;58893;53.130;8.158;2023-02-28T09:04:56;4.23;;;2.47;;
71187;SDS011;58893;53.130;8.158;2023-02-28T09:07:23;6.90;;;3.37;;
71187;SDS011;58893;53.130;8.158;2023-02-28T09:09:48;4.80;;;2.80;;
71187;SDS011;58893;53.130;8.158;2023-02-28T09:12:21;3.60;;;2.70;;
71187;SDS011;58893;53.130;8.158;2023-02-28T09:14:48;7.97;;;2.90;;
71187;SDS011;58893;53.130;8.158;2023-02-28T09:17:13;3.77;;;2.00;;
71187;SDS011;58893;53.130;8.158;2023-02-28T09:19:40;5.37;;;2.50;;
71187;SDS011;58893;53.130;8.158;2023-02-28T09:22:05;4.10;;;2.80;;
71187;SDS011;58893;53.130;8.158;2023-02-28T09:24:31;3.93;;;2.00;;
71187;SDS011;58893;53.130;8.158;2023-02-28T09:26:57;2.00;;;1.80;;
71187;SDS011;58893;53.130;8.158;2023-02-28T09:29:22;4.90;;;1.80;;
71187;SDS011;58893;53.130;8.158;2023-02-28T09:31:48;3.30;;;1.93;;
71187;SDS011;58893;53.130;8.158;2023-02-28T09:34:14;4.70;;;2.00;;
71187;SDS011;58893;53.130;8.158;2023-02-28T09:36:40;5.20;;;2.70;;
71187;SDS011;58893;53.130;8.158;2023-02-28T09:39:06;4.10;;;1.67;;
71187;SDS011;58893;53.130;8.158;2023-02-28T09:41:36;2.37;;;1.60;;
71187;SDS011;58893;53.130;8.158;2023-02-28T09:44:06;1.90;;;1.50;;
71187;SDS011;58893;53.130;8.158;2023-02-28T09:46:42;1.90;;;1.00;;
71187;SDS011;58893;53.130;8.158;2023-02-28T09:49:14;4.00;;;1.70;;
71187;SDS011;58893;53.130;8.158;2023-02-28T09:54:15;2.63;;;1.73;;
71187;SDS011;58893;53.130;8.158;2023-02-28T09:56:51;2.50;;;1.37;;
71187;SDS011;58893;53.130;8.158;2023-02-28T10:02:24;3.87;;;1.80;;
71187;SDS011;58893;53.130;8.158;2023-02-28T10:10:40;2.67;;;1.63;;
71187;SDS011;58893;53.130;8.158;2023-02-28T10:15:53;2.80;;;1.83;;
71187;SDS011;58893;53.130;8.158;2023-02-28T10:18:24;2.03;;;1.60;;
71187;SDS011;58893;53.130;8.158;2023-02-28T10:20:55;1.70;;;1.23;;
71187;SDS011;58893;53.130;8.158;2023-02-28T10:26:05;4.53;;;2.00;;
71187;SDS011;58893;53.130;8.158;2023-02-28T10:28:38;3.77;;;1.90;;
71187;SDS011;58893;53.130;8.158;2023-02-28T10:31:05;2.07;;;1.47;;
71187;SDS011;58893;53.130;8.158;2023-02-28T10:33:42;4.07;;;1.70;;
71187;SDS011;58893;53.130;8.158;2023-02-28T10:36:10;8.90;;;2.20;;
71187;SDS011;58893;53.130;8.158;2023-02-28T10:38:42;3.13;;;1.63;;
71187;SDS011;58893;53.130;8.158;2023-02-28T10:41:09;2.10;;;1.80;;
71187;SDS011;58893;53.130;8.158;2023-02-28T10:43:38;2.13;;;1.50;;
71187;SDS011;58893;53.130;8.158;2023-02-28T10:46:11;1.53;;;1.43;;
71187;SDS011;58893;53.130;8.158;2023-02-28T10:48:40;2.43;;;1.60;;
71187;SDS011;58893;53.130;8.158;2023-02-28T10:51:13;4.40;;;1.47;;
71187;SDS011;58893;53.130;8.158;2023-02-28T10:56:20;2.00;;;1.53;;
71187;SDS011;58893;53.130;8.158;2023-02-28T11:01:45;3.73;;;1.73;;
71187;SDS011;58893;53.130;8.158;2023-02-28T11:06:46;6.77;;;1.93;;
71187;SDS011;58893;53.130;8.158;2023-02-28T11:09:27;8.70;;;2.10;;
71187;SDS011;58893;53.130;8.158;2023-02-28T11:12:02;2.37;;;1.70;;
71187;SDS011;58893;53.130;8.158;2023-02-28T11:14:34;2.57;;;1.77;;
71187;SDS011;58893;53.130;8.158;2023-02-28T11:20:07;2.93;;;1.70;;
71187;SDS011;58893;53.130;8.158;2023-02-28T11:22:45;3.30;;;1.40;;
71187;SDS011;58893;53.130;8.158;2023-02-28T11:25:32;2.77;;;1.67;;
71187;SDS011;58893;53.130;8.158;2023-02-28T11:28:23;4.70;;;2.07;;
71187;SDS011;58893;53.130;8.158;2023-02-28T11:33:54;2.50;;;1.53;;
71187;SDS011;58893;53.130;8.158;2023-02-28T11:36:22;2.33;;;1.73;;
71187;SDS011;58893;53.130;8.158;2023-02-28T11:38:50;2.57;;;1.53;;
71187;SDS011;58893;53.130;8.158;2023-02-28T12:00:02;5.50;;;1.50;;
71187;SDS011;58893;53.130;8.158;2023-02-28T12:02:33;1.53;;;1.20;;
71187;SDS011;58893;53.130;8.158;2023-02-28T12:05:34;2.70;;;1.30;;
71187;SDS011;58893;53.130;8.158;2023-02-28T12:11:11;3.17;;;1.40;;
71187;SDS011;58893;53.130;8.158;2023-02-28T12:13:46;1.50;;;1.40;;
71187;SDS011;58893;53.130;8.158;2023-02-28T12:21:52;3.70;;;1.60;;
71187;SDS011;58893;53.130;8.158;2023-02-28T12:27:19;1.60;;;1.40;;
71187;SDS011;58893;53.130;8.158;2023-02-28T12:29:55;2.83;;;1.70;;
71187;SDS011;58893;53.130;8.158;2023-02-28T12:32:36;1.40;;;1.30;;
71187;SDS011;58893;53.130;8.158;2023-02-28T12:35:10;3.17;;;1.77;;
71187;SDS011;58893;53.130;8.158;2023-02-28T12:37:42;2.10;;;1.87;;
71187;SDS011;58893;53.130;8.158;2023-02-28T12:40:21;3.63;;;1.80;;
71187;SDS011;58893;53.130;8.158;2023-02-28T12:48:11;2.80;;;1.60;;
71187;SDS011;58893;53.130;8.158;2023-02-28T12:50:54;3.13;;;1.40;;
71187;SDS011;58893;53.130;8.158;2023-02-28T12:58:47;2.07;;;1.40;;
71187;SDS011;58893;53.130;8.158;2023-02-28T13:01:27;1.47;;;1.30;;
71187;SDS011;58893;53.130;8.158;2023-02-28T13:09:56;12.53;;;2.13;;
71187;SDS011;58893;53.130;8.158;2023-02-28T13:12:24;2.23;;;1.60;;
71187;SDS011;58893;53.130;8.158;2023-02-28T13:14:51;2.93;;;1.80;;
71187;SDS011;58893;53.130;8.158;2023-02-28T13:17:37;2.70;;;2.20;;
71187;SDS011;58893;53.130;8.158;2023-02-28T13:20:14;4.63;;;1.93;;
71187;SDS011;58893;53.130;8.158;2023-02-28T13:22:46;1.03;;;1.03;;
71187;SDS011;58893;53.130;8.158;2023-02-28T13:27:58;4.60;;;2.23;;
71187;SDS011;58893;53.130;8.158;2023-02-28T13:38:45;1.83;;;1.47;;
71187;SDS011;58893;53.130;8.158;2023-02-28T13:46:28;3.00;;;1.73;;
71187;SDS011;58893;53.130;8.158;2023-02-28T13:48:54;2.20;;;1.70;;
71187;SDS011;58893;53.130;8.158;2023-02-28T13:51:40;3.90;;;1.73;;
71187;SDS011;58893;53.130;8.158;2023-02-28T14:05:17;10.07;;;3.63;;
71187;SDS011;58893;53.130;8.158;2023-02-28T14:07:45;3.33;;;2.03;;
71187;SDS011;58893;53.130;8.158;2023-02-28T14:10:22;2.90;;;1.70;;
71187;SDS011;58893;53.130;8.158;2023-02-28T14:20:48;3.23;;;1.53;;
71187;SDS011;58893;53.130;8.158;2023-02-28T14:31:07;2.67;;;2.00;;
71187;SDS011;58893;53.130;8.158;2023-02-28T14:36:25;6.33;;;1.50;;
71187;SDS011;58893;53.130;8.158;2023-02-28T14:38:56;4.77;;;1.87;;
71187;SDS011;58893;53.130;8.158;2023-02-28T14:41:32;2.60;;;1.70;;
71187;SDS011;58893;53.130;8.158;2023-02-28T14:44:13;11.33;;;2.27;;
71187;SDS011;58893;53.130;8.158;2023-02-28T14:46:46;2.10;;;1.47;;
71187;SDS011;58893;53.130;8.158;2023-02-28T14:49:18;3.40;;;1.83;;
71187;SDS011;58893;53.130;8.158;2023-02-28T14:51:44;5.07;;;1.60;;
71187;SDS011;58893;53.130;8.158;2023-02-28T14:54:12;1.83;;;1.30;;
71187;SDS011;58893;53.130;8.158;2023-02-28T14:56:44;5.23;;;2.00;;
71187;SDS011;58893;53.130;8.158;2023-02-28T14:59:26;3.70;;;2.20;;
71187;SDS011;58893;53.130;8.158;2023-02-28T15:04:42;4.57;;;2.10;;
71187;SDS011;58893;53.130;8.158;2023-02-28T15:07:14;3.10;;;1.70;;
71187;SDS011;58893;53.130;8.158;2023-02-28T15:09:40;5.33;;;2.23;;
71187;SDS011;58893;53.130;8.158;2023-02-28T15:12:06;6.03;;;2.23;;
71187;SDS011;58893;53.130;8.158;2023-02-28T15:14:32;3.43;;;2.03;;
71187;SDS011;58893;53.130;8.158;2023-02-28T15:17:05;2.90;;;2.20;;
71187;SDS011;58893;53.130;8.158;2023-02-28T15:19:40;4.97;;;2.20;;
71187;SDS011;58893;53.130;8.158;2023-02-28T15:22:11;3.70;;;1.83;;
71187;SDS011;58893;53.130;8.158;2023-02-28T15:24:44;5.87;;;2.10;;
71187;SDS011;58893;53.130;8.158;2023-02-28T15:29:51;3.10;;;2.03;;
71187;SDS011;58893;53.130;8.158;2023-02-28T15:32:29;2.90;;;1.80;;
71187;SDS011;58893;53.130;8.158;2023-02-28T15:34:56;4.30;;;2.37;;
71187;SDS011;58893;53.130;8.158;2023-02-28T15:40:10;4.30;;;2.20;;
71187;SDS011;58893;53.130;8.158;2023-02-28T15:42:39;4.97;;;2.13;;
71187;SDS011;58893;53.130;8.158;2023-02-28T15:45:05;2.70;;;1.90;;
71187;SDS011;58893;53.130;8.158;2023-02-28T15:47:31;3.00;;;1.80;;
71187;SDS011;58893;53.130;8.158;2023-02-28T15:49:58;2.63;;;2.00;;
71187;SDS011;58893;53.130;8.158;2023-02-28T15:52:28;4.63;;;3.83;;
71187;SDS011;58893;53.130;8.158;2023-02-28T15:57:43;3.20;;;1.93;;
71187;SDS011;58893;53.130;8.158;2023-02-28T16:00:11;4.87;;;1.90;;
71187;SDS011;58893;53.130;8.158;2023-02-28T16:02:40;3.00;;;1.97;;
71187;SDS011;58893;53.130;8.158;2023-02-28T16:07:31;3.20;;;1.40;;
71187;SDS011;58893;53.130;8.158;2023-02-28T16:09:58;3.77;;;2.30;;
71187;SDS011;58893;53.130;8.158;2023-02-28T16:12:26;4.73;;;1.97;;
71187;SDS011;58893;53.130;8.158;2023-02-28T16:15:00;3.30;;;1.97;;
71187;SDS011;58893;53.130;8.158;2023-02-28T16:17:29;3.60;;;2.10;;
71187;SDS011;58893;53.130;8.158;2023-02-28T16:19:58;3.73;;;1.83;;
71187;SDS011;58893;53.130;8.158;2023-02-28T16:22:25;3.50;;;2.30;;
71187;SDS011;58893;53.130;8.158;2023-02-28T16:24:51;4.23;;;2.10;;
71187;SDS011;58893;53.130;8.158;2023-02-28T16:27:36;7.50;;;2.23;;
71187;SDS011;58893;53.130;8.158;2023-02-28T16:30:03;2.87;;;2.20;;
71187;SDS011;58893;53.130;8.158;2023-02-28T16:32:30;3.20;;;2.30;;
71187;SDS011;58893;53.130;8.158;2023-02-28T16:34:59;2.67;;;2.00;;
71187;SDS011;58893;53.130;8.158;2023-02-28T16:37:26;6.97;;;2.43;;
71187;SDS011;58893;53.130;8.158;2023-02-28T16:39:52;5.07;;;2.00;;
71187;SDS011;58893;53.130;8.158;2023-02-28T16:42:22;3.07;;;2.27;;
71187;SDS011;58893;53.130;8.158;2023-02-28T16:44:50;4.37;;;2.67;;
71187;SDS011;58893;53.130;8.158;2023-02-28T16:47:16;6.73;;;2.83;;
71187;SDS011;58893;53.130;8.158;2023-02-28T16:49:42;8.10;;;3.27;;
71187;SDS011;58893;53.130;8.158;2023-02-28T16:52:09;6.53;;;2.50;;
71187;SDS011;58893;53.130;8.158;2023-02-28T16:54:36;12.60;;;3.40;;
71187;SDS011;58893;53.130;8.158;2023-02-28T16:57:03;4.83;;;2.90;;
71187;SDS011;58893;53.130;8.158;2023-02-28T16:59:30;4.83;;;2.60;;
71187;SDS011;58893;53.130;8.158;2023-02-28T17:01:56;5.20;;;2.30;;
71187;SDS011;58893;53.130;8.158;2023-02-28T17:04:23;4.87;;;2.60;;
71187;SDS011;58893;53.130;8.158;2023-02-28T17:06:50;6.43;;;2.70;;
71187;SDS011;58893;53.130;8.158;2023-02-28T17:09:24;7.73;;;2.80;;
71187;SDS011;58893;53.130;8.158;2023-02-28T17:11:51;5.10;;;3.07;;
71187;SDS011;58893;53.130;8.158;2023-02-28T17:14:17;4.40;;;2.90;;
71187;SDS011;58893;53.130;8.158;2023-02-28T17:16:42;3.07;;;2.00;;
71187;SDS011;58893;53.130;8.158;2023-02-28T17:19:12;4.37;;;2.30;;
71187;SDS011;58893;53.130;8.158;2023-02-28T17:21:39;10.50;;;3.40;;
71187;SDS011;58893;53.130;8.158;2023-02-28T17:24:06;7.57;;;3.43;;
71187;SDS011;58893;53.130;8.158;2023-02-28T17:26:33;7.60;;;3.00;;
71187;SDS011;58893;53.130;8.158;2023-02-28T17:28:59;6.30;;;2.77;;
71187;SDS011;58893;53.130;8.158;2023-02-28T17:31:25;4.50;;;2.77;;
71187;SDS011;58893;53.130;8.158;2023-02-28T17:33:52;6.17;;;3.80;;
71187;SDS011;58893;53.130;8.158;2023-02-28T17:36:22;6.47;;;3.20;;
71187;SDS011;58893;53.130;8.158;2023-02-28T17:38:50;6.27;;;3.00;;
71187;SDS011;58893;53.130;8.158;2023-02-28T17:41:16;5.40;;;2.80;;
71187;SDS011;58893;53.130;8.158;2023-02-28T17:43:42;7.00;;;4.27;;
71187;SDS011;58893;53.130;8.158;2023-02-28T17:46:15;6.90;;;3.20;;
71187;SDS011;58893;53.130;8.158;2023-02-28T17:48:45;7.70;;;3.37;;
71187;SDS011;58893;53.130;8.158;2023-02-28T17:51:14;5.37;;;2.70;;
71187;SDS011;58893;53.130;8.158;2023-02-28T17:53:41;4.33;;;3.03;;